Map

Track Data

SID SEASON NUMBER BASIN SUBBASIN NAME ISO_TIME NATURE LAT LON WMO_WIND WMO_PRES WMO_AGENCY TRACK_TYPE DIST2LAND LANDFALL IFLAG USA_AGENCY USA_ATCF_ID USA_LAT USA_LON USA_RECORD USA_STATUS USA_WIND USA_PRES USA_SSHS USA_R34_NE USA_R34_SE USA_R34_SW USA_R34_NW USA_R50_NE USA_R50_SE USA_R50_SW USA_R50_NW USA_R64_NE USA_R64_SE USA_R64_SW USA_R64_NW USA_POCI USA_ROCI USA_RMW USA_EYE TOKYO_LAT TOKYO_LON TOKYO_GRADE TOKYO_WIND TOKYO_PRES TOKYO_R50_DIR TOKYO_R50_LONG TOKYO_R50_SHORT TOKYO_R30_DIR TOKYO_R30_LONG TOKYO_R30_SHORT TOKYO_LAND CMA_LAT CMA_LON CMA_CAT CMA_WIND CMA_PRES HKO_LAT HKO_LON HKO_CAT HKO_WIND HKO_PRES NEWDELHI_LAT NEWDELHI_LON NEWDELHI_GRADE NEWDELHI_WIND NEWDELHI_PRES NEWDELHI_CI NEWDELHI_DP NEWDELHI_POCI REUNION_LAT REUNION_LON REUNION_TYPE REUNION_WIND REUNION_PRES REUNION_TNUM REUNION_CI REUNION_RMW REUNION_R34_NE REUNION_R34_SE REUNION_R34_SW REUNION_R34_NW REUNION_R50_NE REUNION_R50_SE REUNION_R50_SW REUNION_R50_NW REUNION_R64_NE REUNION_R64_SE REUNION_R64_SW REUNION_R64_NW BOM_LAT BOM_LON BOM_TYPE BOM_WIND BOM_PRES BOM_TNUM BOM_CI BOM_RMW BOM_R34_NE BOM_R34_SE BOM_R34_SW BOM_R34_NW BOM_R50_NE BOM_R50_SE BOM_R50_SW BOM_R50_NW BOM_R64_NE BOM_R64_SE BOM_R64_SW BOM_R64_NW BOM_ROCI BOM_POCI BOM_EYE BOM_POS_METHOD BOM_PRES_METHOD NADI_LAT NADI_LON NADI_CAT NADI_WIND NADI_PRES WELLINGTON_LAT WELLINGTON_LON WELLINGTON_WIND WELLINGTON_PRES DS824_LAT DS824_LON DS824_STAGE DS824_WIND DS824_PRES TD9636_LAT TD9636_LON TD9636_STAGE TD9636_WIND TD9636_PRES TD9635_LAT TD9635_LON TD9635_WIND TD9635_PRES TD9635_ROCI NEUMANN_LAT NEUMANN_LON NEUMANN_CLASS NEUMANN_WIND NEUMANN_PRES MLC_LAT MLC_LON MLC_CLASS MLC_WIND MLC_PRES USA_GUST BOM_GUST BOM_GUST_PER REUNION_GUST REUNION_GUST_PER USA_SEAHGT USA_SEARAD_NE USA_SEARAD_SE USA_SEARAD_SW USA_SEARAD_NW STORM_SPEED STORM_DIR
1954059S14041 1954 9 SI MM NOT_NAMED 1954-02-27 18:00:00 TS -14.0000 40.7000 main 10 10 O________OO___ jtwc_sh SH101954 -14.0000 40.7000 -1 -14.0000 40.7000 TC -14.0000 40.7000 7 4 118
1954059S14041 1954 9 SI MM NOT_NAMED 1954-02-27 21:00:00 TS -14.1007 40.8975 main 31 31 P________PP___ SH101954 -14.0900 40.8925 -1 -14.0900 40.8925 TC -14.1220 40.9077 7 5 118
1954059S14041 1954 9 SI MM NOT_NAMED 1954-02-28 00:00:00 TS -14.2150 41.1074 main 44 44 O________OP___ jtwc_sh SH101954 -14.2000 41.1000 -1 -14.2000 41.1000 TC 25 -14.2451 41.1223 7 5 120
1954059S14041 1954 9 SI MM NOT_NAMED 1954-02-28 03:00:00 TS -14.3519 41.3403 main 55 55 P________PP___ SH101954 -14.3425 41.3350 -1 -14.3425 41.3350 TC 25 -14.3707 41.3508 7 5 131
1954059S14041 1954 9 SI MM NOT_NAMED 1954-02-28 06:00:00 TS -14.5615 41.5231 reunion main 75 75 O____O___OO___ jtwc_sh SH101954 -14.5000 41.6000 -1 -15.3000 40.6000 99 9.90000 -14.5000 41.6000 TC 25 -14.5000 41.6000 1 6 134
1954059S14041 1954 9 SI MM NOT_NAMED 1954-02-28 09:00:00 TS -14.7361 41.7573 main 107 107 P____P___PP___ SH101954 -14.6500 41.8925 -1 -15.2836 40.9820 99 -14.6500 41.8925 TC 25 -14.6347 41.8745 1 6 124
1954059S14041 1954 9 SI MM NOT_NAMED 1954-02-28 12:00:00 TS -14.8888 42.0242 main 129 129 O____P___OP___ jtwc_sh SH101954 -14.8000 42.2000 -1 -15.2743 41.3608 99 -14.8000 42.2000 TC 25 -14.7774 42.1702 1 6 119
1954059S14041 1954 9 SI MM NOT_NAMED 1954-02-28 15:00:00 TS -15.0240 42.3036 main 161 161 P____P___PP___ SH101954 -14.9425 42.5001 -1 -15.2797 41.7334 99 -14.9425 42.5001 TC 25 -14.9315 42.4808 1 6 114
1954059S14041 1954 9 SI MM NOT_NAMED 1954-02-28 18:00:00 TS -15.1519 42.6242 main 194 194 O____P___OO___ jtwc_sh SH101954 -15.1000 42.8000 -1 -15.3077 42.0969 99 -15.1000 42.8000 TC 25 -15.1000 42.8000 1 7 115
1954059S14041 1954 9 SI MM NOT_NAMED 1954-02-28 21:00:00 TS -15.3060 42.9398 main 195 156 P____P___PP___ SH101954 -15.2924 43.0926 -1 -15.3659 42.4481 99 -15.2924 43.0926 TC 25 -15.2734 43.1261 1 7 118
1954059S14041 1954 9 SI MM NOT_NAMED 1954-03-01 00:00:00 TS -15.4812 43.2605 main 147 108 O____P___OP___ jtwc_sh SH101954 -15.5000 43.4000 -1 -15.4622 42.7843 99 -15.5000 43.4000 TC 25 -15.4625 43.4577 1 7 120
1954059S14041 1954 9 SI MM NOT_NAMED 1954-03-01 03:00:00 TS -15.6649 43.5933 main 108 69 P____P___PP___ SH101954 -15.6925 43.7426 -1 -15.6043 43.1025 99 -15.6925 43.7426 TC 25 -15.6703 43.7855 1 8 122
1954059S14041 1954 9 SI MM NOT_NAMED 1954-03-01 06:00:00 TS -15.8750 43.9250 reunion main 69 24 O____O___OO___ jtwc_sh SH101954 -15.9000 44.1000 -1 -15.8000 43.4000 99 9.90000 -15.9000 44.1000 TC 25 -15.9000 44.1000 1 8 125
1954059S14041 1954 9 SI MM NOT_NAMED 1954-03-01 09:00:00 TS -16.1175 44.2684 main 24 0 P____P___PP___ SH101954 -16.1350 44.4725 -1 -16.0544 43.6749 99 -16.1350 44.4725 TC 25 -16.1454 44.4538 1 8 130
1954059S14041 1954 9 SI MM NOT_NAMED 1954-03-01 12:00:00 TS -16.3935 44.5784 main 0 0 O____P___OP___ jtwc_sh SH101954 -16.4000 44.8000 -1 -16.3613 43.9294 99 -16.4000 44.8000 TC 25 -16.4127 44.7841 1 8 137
1954059S14041 1954 9 SI MM NOT_NAMED 1954-03-01 15:00:00 TS -16.6988 44.8372 main 0 0 P____P___PP___ SH101954 -16.6925 45.0674 -1 -16.7116 44.1666 99 -16.6925 45.0674 TC 25 -16.6985 45.0474 1 8 148
1954059S14041 1954 9 SI MM NOT_NAMED 1954-03-01 18:00:00 TS -17.0241 44.9974 main 0 0 O____P___OO___ jtwc_sh SH101954 -17.0000 45.2000 -1 -17.0965 44.3896 99 -17.0000 45.2000 TC 25 -17.0000 45.2000 1 7 165
1954059S14041 1954 9 SI MM NOT_NAMED 1954-03-01 21:00:00 TS -17.3414 45.0223 main 0 0 P____P___PP___ SH101954 -17.2925 45.1526 -1 -17.5068 44.6014 99 -17.2925 45.1526 TC 25 -17.2740 45.1826 1 7 184
1954059S14041 1954 9 SI MM NOT_NAMED 1954-03-02 00:00:00 TS -17.6752 44.9652 main 0 0 O____P___OP___ jtwc_sh SH101954 -17.6000 45.0000 -1 -17.9335 44.8051 99 -17.6000 45.0000 TC 25 -17.5675 45.0559 1 7 190
1954059S14041 1954 9 SI MM NOT_NAMED 1954-03-02 03:00:00 TS -18.0237 44.8949 main 0 0 P____P___PP___ SH101954 -17.9125 44.8500 -1 -18.3676 45.0036 99 -17.9125 44.8500 TC 25 -17.9023 44.8762 1 8 190
1954059S14041 1954 9 SI MM NOT_NAMED 1954-03-02 06:00:00 TS -18.4250 44.8250 reunion main 0 0 O____O___OO___ jtwc_sh SH101954 -18.3000 44.7000 -1 -18.8000 45.2000 99 9.90000 -18.3000 44.7000 TC 25 -18.3000 44.7000 1 9 187
1954059S14041 1954 9 SI MM NOT_NAMED 1954-03-02 09:00:00 TS -18.9109 44.7797 main 0 0 P____P___PP___ SH101954 -18.8200 44.5850 -1 -19.2222 45.3777 99 -18.8200 44.5850 TC 25 -18.7813 44.5709 1 10 184
1954059S14041 1954 9 SI MM NOT_NAMED 1954-03-02 12:00:00 TS -19.4444 44.7521 main 0 0 O____P___OP___ jtwc_sh SH101954 -19.4000 44.5000 -1 -19.6527 45.5471 99 -19.4000 44.5000 TC 25 -19.3250 44.4615 1 11 182
1954059S14041 1954 9 SI MM NOT_NAMED 1954-03-02 15:00:00 TS -19.9688 44.7417 main 0 0 P____P___PP___ SH101954 -19.9425 44.4276 -1 -20.0841 45.7153 99 -19.9425 44.4276 TC 25 -19.9062 44.3962 1 11 180
1954059S14041 1954 9 SI MM NOT_NAMED 1954-03-02 18:00:00 TS -20.5023 44.7725 main 0 0 O____P___OO___ jtwc_sh SH101954 -20.5000 44.4000 -1 -20.5093 45.8899 99 -20.5000 44.4000 TC 25 -20.5000 44.4000 1 11 176
1954059S14041 1954 9 SI MM NOT_NAMED 1954-03-02 21:00:00 TS -21.0632 44.8289 main 0 0 P____P___PP___ SH101954 -21.0999 44.3978 -1 -20.9209 46.0781 99 -21.0999 44.3978 TC 25 -21.1321 44.4417 1 11 171
1954059S14041 1954 9 SI MM NOT_NAMED 1954-03-03 00:00:00 TS -21.6182 44.9624 main 0 0 O____P___OP___ jtwc_sh SH101954 -21.7000 44.5000 -1 -21.3115 46.2876 99 -21.7000 44.5000 TC 25 -21.7613 44.5618 1 11 163
1954059S14041 1954 9 SI MM NOT_NAMED 1954-03-03 03:00:00 TS -22.1496 45.1916 main 0 0 P____P___PP___ SH101954 -22.2949 44.7323 -1 -21.6737 46.5257 99 -22.2949 44.7323 TC 25 -22.3349 44.7761 1 11 152
1954059S14041 1954 9 SI MM NOT_NAMED 1954-03-03 06:00:00 TS -22.6000 45.5250 reunion main 0 0 O____O___OO___ jtwc_sh SH101954 -22.8000 45.1000 -1 -22.0000 46.8000 99 9.90000 -22.8000 45.1000 TC 25 -22.8000 45.1000 1 10 139
1954059S14041 1954 9 SI MM NOT_NAMED 1954-03-03 09:00:00 TS -22.9346 45.9374 main 0 0 P____P___PP___ SH101954 -23.1749 45.5549 -1 -22.2698 47.1099 99 -23.1749 45.5549 TC 25 -23.1188 45.5299 1 10 124
1954059S14041 1954 9 SI MM NOT_NAMED 1954-03-03 12:00:00 TS -23.1568 46.4294 main 0 0 O____P___OP___ jtwc_sh SH101954 -23.4000 46.1000 -1 -22.5042 47.4525 99 -23.4000 46.1000 TC 25 -23.3229 46.0649 1 10 110
1954059S14041 1954 9 SI MM NOT_NAMED 1954-03-03 15:00:00 TS -23.2811 46.9661 main 0 0 P____P___PP___ SH101954 -23.4874 46.6855 -1 -22.7090 47.8261 99 -23.4874 46.6855 TC 25 -23.4405 46.6675 1 10 101
1954059S14041 1954 9 SI MM NOT_NAMED 1954-03-03 18:00:00 TS -23.3476 47.5322 main 0 0 O____P___OO___ jtwc_sh SH101954 -23.5000 47.3000 -1 -22.8903 48.2290 99 -23.5000 47.3000 TC 25 -23.5000 47.3000 1 10 98
1954059S14041 1954 9 SI MM NOT_NAMED 1954-03-03 21:00:00 TS -23.4276 48.0939 main 40 40 P____P___PP___ SH101954 -23.5647 47.8923 -1 -23.0541 48.6593 99 -23.5647 47.8923 TC 25 -23.5268 47.9317 1 11 96
1954059S14041 1954 9 SI MM NOT_NAMED 1954-03-04 00:00:00 TS -23.4630 48.7028 main 102 102 O____P___OP___ jtwc_sh SH101954 -23.6000 48.5000 -1 -23.2063 49.1157 99 -23.6000 48.5000 TC 25 -23.5313 48.5578 1 11 92
1954059S14041 1954 9 SI MM NOT_NAMED 1954-03-04 03:00:00 TS -23.4735 49.3307 main 163 163 P____P___PP___ SH101954 -23.5706 49.1403 -1 -23.3529 49.5964 99 -23.5706 49.1403 TC 25 -23.5202 49.1800 1 12 92
1954059S14041 1954 9 SI MM NOT_NAMED 1954-03-04 06:00:00 TS -23.5000 49.9714 reunion main 234 234 O____O___OO___ jtwc_sh SH101954 -23.5000 49.8000 -1 -23.5000 50.1000 99 9.90000 -23.5000 49.8000 TC 25 -23.5000 49.8000 1 12 100
1954059S14041 1954 9 SI MM NOT_NAMED 1954-03-04 09:00:00 NR -23.6770 50.6018 main 297 297 _____P________ SH101954 -1 -23.6770 50.6018 99 TC 1 11 108
1954059S14041 1954 9 SI MM NOT_NAMED 1954-03-04 12:00:00 NR -23.8505 51.1293 main 350 350 _____P________ -1 -23.8505 51.1293 99 1 10 109
1954059S14041 1954 9 SI MM NOT_NAMED 1954-03-04 15:00:00 NR -24.0201 51.6801 main 412 412 _____P________ -1 -24.0201 51.6801 99 1 11 108
1954059S14041 1954 9 SI MM NOT_NAMED 1954-03-04 18:00:00 NR -24.1855 52.2518 main 446 421 _____P________ -1 -24.1855 52.2518 99 11 107
1954059S14041 1954 9 SI MM NOT_NAMED 1954-03-04 21:00:00 NR -24.3465 52.8421 main 421 407 _____P________ -1 -24.3465 52.8421 99 11 106
1954059S14041 1954 9 SI MM NOT_NAMED 1954-03-05 00:00:00 NR -24.5027 53.4484 main 407 392 _____P________ -1 -24.5027 53.4484 99 12 105
1954059S14041 1954 9 SI MM NOT_NAMED 1954-03-05 03:00:00 NR -24.6539 54.0685 main 399 388 _____P________ -1 -24.6539 54.0685 99 12 105
1954059S14041 1954 9 SI MM NOT_NAMED 1954-03-05 06:00:00 NR -24.8000 54.7000 reunion main 391 386 _____O________ -1 -24.8000 54.7000 99 9.90000 13 104
1954059S14041 1954 9 SI MM NOT_NAMED 1954-03-05 09:00:00 NR -24.9594 55.4087 main 402 402 _____P________ -1 -24.9594 55.4087 99 13 104
1954059S14041 1954 9 SI MM NOT_NAMED 1954-03-05 12:00:00 NR -25.1147 56.1422 main 416 416 _____P________ -1 -25.1147 56.1422 99 14 103
1954059S14041 1954 9 SI MM NOT_NAMED 1954-03-05 15:00:00 NR -25.2625 56.8817 main 455 455 _____P________ -1 -25.2625 56.8817 99 14 102
1954059S14041 1954 9 SI MM NOT_NAMED 1954-03-05 18:00:00 NR -25.4000 57.6082 main 491 491 _____P________ -1 -25.4000 57.6082 99 13 102
1954059S14041 1954 9 SI MM NOT_NAMED 1954-03-05 21:00:00 NR -25.5246 58.3026 main 534 534 _____P________ -1 -25.5246 58.3026 99 12 101
1954059S14041 1954 9 SI MM NOT_NAMED 1954-03-06 00:00:00 NR -25.6340 58.9457 main 575 575 _____P________ -1 -25.6340 58.9457 99 11 100
1954059S14041 1954 9 SI MM NOT_NAMED 1954-03-06 03:00:00 NR -25.7264 59.5179 main 609 609 _____P________ -1 -25.7264 59.5179 99 10 100
1954059S14041 1954 9 SI MM NOT_NAMED 1954-03-06 06:00:00 NR -25.8000 60.0000 reunion main 637 637 _____O________ -1 -25.8000 60.0000 99 9.90000 8 99
1954059S14041 1954 9 SI MM NOT_NAMED 1954-03-06 09:00:00 NR -25.8541 60.3780 main 663 663 _____P________ -1 -25.8541 60.3780 99 6 99
1954059S14041 1954 9 SI MM NOT_NAMED 1954-03-06 12:00:00 NR -25.8911 60.6599 main 676 676 _____P________ -1 -25.8911 60.6599 99 4 98
1954059S14041 1954 9 SI MM NOT_NAMED 1954-03-06 15:00:00 NR -25.9138 60.8593 main 686 686 _____P________ -1 -25.9138 60.8593 99 3 96
1954059S14041 1954 9 SI MM NOT_NAMED 1954-03-06 18:00:00 NR -25.9248 60.9900 main 691 691 _____P________ -1 -25.9248 60.9900 99 2 94
1954059S14041 1954 9 SI MM NOT_NAMED 1954-03-06 21:00:00 NR -25.9266 61.0657 main 696 696 _____P________ -1 -25.9266 61.0657 99 1 88
1954059S14041 1954 9 SI MM NOT_NAMED 1954-03-07 00:00:00 NR -25.9215 61.1000 main 696 696 _____P________ -1 -25.9215 61.1000 99 0 68
1954059S14041 1954 9 SI MM NOT_NAMED 1954-03-07 03:00:00 NR -25.9119 61.1069 main 696 696 _____P________ -1 -25.9119 61.1069 99 0 0
1954059S14041 1954 9 SI MM NOT_NAMED 1954-03-07 06:00:00 NR -25.9000 61.1000 reunion main 696 _____O________ -1 -25.9000 61.1000 99 9.90000 0 0

About IBTrACS Database

This database is a web-friendly format of International Best Track Archive for Climate Stewardship (IBTrACS), a global best track data archive curated by NOAA dating back to 1842.

Updated: 2021-11-26